Disclaimer

Please do not use the information listed here in-flight or in-navigation, as they are not provided to us by the airports but are provided by volunteers, so they might be outdated.

Search


Regions


Airport information page

Radio informations:
Tower (TWR) - 122.1 MHz
Ground (GND) - 121.95 MHz
Automatic Terminal Information Service (ATIS) - 369.45 MHz
Approach (APP) - 122.1 MHz

Airport informations:
Latitude: 40° 49' 45.75" N
Longitude: 035° 31' 19.17" E
Elevation: 1758 feet - 536 meters
Operating hours: 24 hour operations
Operating agency: Military
Timezone: UTC+2(+3DT) - Dates notified by NOTAM
Fuel: JP-8, SemiKeroscene MIL Spec T-83133, without icing inhibitor

115/145 octane gasoline, leaded, MIL-L-5572F (PURPLE)

Runway information:
05/23 - 9600 x 148 feet< - >2926 x 45 meters

Recent METARs:
LTAP 180650Z 00000KT 9999 SCT040 BKN070 05/01 Q1024 NOSIG RMK RWY23 00000KT
LTAP 180720Z 00000KT 9999 SCT040 BKN070 06/01 Q1024 NOSIG RMK RWY23 VRB01KT
LTAP 180750Z 00000KT 9999 SCT040 BKN070 06/01 Q1024 NOSIG RMK RWY23 VRB01KT

Airport on the map: